.
WxDataArchive / Data Records for 2008-05-01
2008-04-30 May 2008 2008-05-02

Data Records for Thursday, 01 May 2008

Time	Temp	Chill	HIndex	Humid	Dewpt	 Wind 	HiWind	WindDir	Rain 	Barom 
-----	----	-----	------	-----	-----	------	------	-------	-----	----- 
00:00	48.2	48.2	48.2	68	38.1	1	3	90	0.00	29.896 
00:05	48.0	48.0	48.0	68	37.9	0	3	90	0.00	29.894 
00:10	48.0	48.0	48.0	68	37.9	1	3	90	0.00	29.893 
00:15	47.9	47.9	47.9	69	38.2	0	3	90	0.00	29.893 
00:20	47.9	47.9	47.9	69	38.2	1	2	90	0.00	29.892 
00:25	47.9	47.9	47.9	69	38.2	0	1	90	0.00	29.891 
00:30	47.9	47.9	47.9	69	38.2	0	2	90	0.00	29.890 
00:35	47.9	47.9	47.9	70	38.6	0	2	90	0.00	29.891 
00:40	47.7	47.7	47.7	70	38.4	0	2	90	0.00	29.889 
00:45	47.6	47.6	47.6	71	38.7	0	1	90	0.00	29.883 
00:50	47.6	47.6	47.6	71	38.7	0	3	90	0.00	29.881 
00:55	47.6	47.6	47.6	71	38.7	1	2	90	0.00	29.878 
01:00	47.4	47.4	47.4	71	38.5	0	2	90	0.00	29.877 
01:05	47.4	47.4	47.4	72	38.8	0	2	90	0.00	29.875 
01:10	47.4	47.4	47.4	72	38.8	1	4	90	0.00	29.873 
01:15	47.6	47.6	47.6	72	39.0	1	4	90	0.00	29.872 
01:20	47.6	47.6	47.6	72	39.0	1	4	90	0.00	29.872 
01:25	47.6	47.6	47.6	73	39.4	0	2	90	0.00	29.870 
01:30	47.4	47.4	47.4	73	39.2	1	4	90	0.00	29.865 
01:35	47.4	47.4	47.4	73	39.2	1	4	90	0.00	29.864 
01:40	47.4	47.4	47.4	73	39.2	1	5	112	0.00	29.863 
01:45	47.4	47.4	47.4	73	39.2	1	3	112	0.00	29.862 
01:50	47.4	47.4	47.4	73	39.2	1	4	135	0.00	29.861 
01:55	47.4	47.4	47.4	73	39.2	2	4	112	0.00	29.860 
02:00	47.4	47.4	47.4	74	39.5	1	3	112	0.00	29.859 
02:05	47.6	47.6	47.6	74	39.7	2	4	112	0.00	29.859 
02:10	47.6	47.6	47.6	74	39.7	1	3	112	0.00	29.860 
02:15	47.7	47.7	47.7	73	39.5	1	3	112	0.00	29.859 
02:20	47.9	47.9	47.9	73	39.7	1	3	90	0.00	29.857 
02:25	47.9	47.9	47.9	73	39.7	1	3	90	0.00	29.850 
02:30	48.0	48.0	48.0	72	39.4	2	4	90	0.00	29.849 
02:35	48.0	48.0	48.0	72	39.4	2	4	112	0.00	29.851 
02:40	47.9	47.9	47.9	73	39.7	1	4	112	0.00	29.851 
02:45	47.6	47.6	47.6	73	39.4	2	4	90	0.00	29.848 
02:50	47.4	47.4	47.4	73	39.2	1	3	90	0.00	29.847 
02:55	47.3	47.3	47.3	73	39.1	1	4	112	0.00	29.850 
03:00	47.1	47.1	47.1	73	38.9	1	4	90	0.00	29.856 
03:05	47.0	47.0	47.0	73	38.8	1	3	90	0.00	29.854 
03:10	46.8	46.8	46.8	73	38.6	1	5	112	0.00	29.852 
03:15	46.7	46.7	46.7	74	38.9	0	2	90	0.00	29.851 
03:20	46.5	46.5	46.5	74	38.7	1	3	90	0.00	29.849 
03:25	46.2	46.2	46.2	75	38.7	1	4	90	0.00	29.849 
03:30	46.0	46.0	46.0	75	38.5	2	4	90	0.00	29.844 
03:35	45.7	45.7	45.7	75	38.2	2	6	90	0.00	29.845 
03:40	45.4	45.4	45.4	76	38.3	1	4	112	0.00	29.846 
03:45	45.1	45.1	45.1	77	38.3	2	4	112	0.00	29.847 
03:50	44.8	44.8	44.8	77	38.0	1	3	112	0.00	29.845 
03:55	44.6	44.6	44.6	78	38.2	1	3	112	0.00	29.845 
04:00	44.5	44.5	44.5	78	38.1	0	3	112	0.00	29.844 
04:05	44.3	44.3	44.3	79	38.2	0	1	112	0.00	29.845 
04:10	44.2	44.2	44.2	79	38.1	0	2	112	0.00	29.844 
04:15	44.1	44.1	44.1	79	38.0	0	2	112	0.00	29.844 
04:20	44.1	44.1	44.1	80	38.3	0	1	112	0.00	29.844 
04:25	43.9	43.9	43.9	80	38.1	0	1	112	0.00	29.842 
04:30	43.8	43.8	43.8	81	38.4	1	3	112	0.00	29.839 
04:35	43.8	43.8	43.8	81	38.4	0	1	112	0.00	29.839 
04:40	43.6	43.6	43.6	81	38.2	1	3	112	0.00	29.833 
04:45	43.6	43.6	43.6	81	38.2	0	2	112	0.00	29.834 
04:50	43.6	43.6	43.6	81	38.2	0	1	112	0.00	29.835 
04:55	43.5	43.5	43.5	82	38.4	0	1	112	0.00	29.835 
05:00	43.5	43.5	43.5	82	38.4	1	2	112	0.00	29.834 
05:05	43.3	43.3	43.3	82	38.2	0	1	112	0.00	29.833 
05:10	43.3	43.3	43.3	82	38.2	0	2	112	0.00	29.833 
05:15	43.3	43.3	43.3	82	38.2	0	1	112	0.00	29.833 
05:20	43.2	43.2	43.2	82	38.1	0	2	112	0.00	29.833 
05:25	43.2	43.2	43.2	83	38.4	0	2	112	0.00	29.833 
05:30	43.1	43.1	43.1	83	38.3	1	2	112	0.00	29.832 
05:35	43.1	43.1	43.1	84	38.6	0	3	112	0.00	29.833 
05:40	42.9	42.9	42.9	84	38.4	0	2	112	0.00	29.833 
05:45	42.9	42.9	42.9	84	38.4	0	2	112	0.00	29.833 
05:50	43.1	43.1	43.1	84	38.6	0	2	112	0.00	29.833 
05:55	43.1	43.1	43.1	84	38.6	0	1	112	0.00	29.834 
06:00	43.1	43.1	43.1	84	38.6	0	1	112	0.00	29.836 
06:05	43.2	43.2	43.2	84	38.7	0	2	112	0.00	29.837 
06:10	43.3	43.3	43.3	84	38.8	1	3	112	0.00	29.836 
06:15	43.6	43.6	43.6	84	39.1	0	3	112	0.00	29.835 
06:20	43.8	43.8	43.8	83	39.0	1	3	112	0.00	29.837 
06:25	43.9	43.9	43.9	83	39.1	1	3	112	0.00	29.838 
06:30	44.2	44.2	44.2	83	39.4	1	2	112	0.00	29.837 
06:35	44.3	44.3	44.3	82	39.2	1	3	112	0.00	29.837 
06:40	44.5	44.5	44.5	82	39.4	0	2	112	0.00	29.839 
06:45	44.5	44.5	44.5	82	39.4	1	2	112	0.00	29.839 
06:50	44.8	44.8	44.8	82	39.6	1	3	112	0.00	29.841 
06:55	45.2	45.2	45.2	82	40.0	1	2	112	0.00	29.842 
07:00	45.8	45.8	45.8	81	40.3	1	4	90	0.00	29.837 
07:05	46.5	46.5	46.5	80	40.7	1	3	90	0.00	29.838 
07:10	47.3	47.3	47.3	78	40.8	1	3	90	0.00	29.837 
07:15	48.0	48.0	48.0	77	41.1	1	3	90	0.00	29.833 
07:20	48.8	48.8	48.8	76	41.6	2	4	90	0.00	29.833 
07:25	49.5	49.5	49.5	74	41.6	1	3	112	0.00	29.830 
07:30	49.8	49.8	49.8	73	41.5	2	4	112	0.00	29.827 
07:35	49.8	49.8	49.8	73	41.5	1	3	112	0.00	29.827 
07:40	50.1	50.1	50.1	73	41.8	1	4	112	0.00	29.826 
07:45	50.4	50.4	50.4	73	42.1	1	4	112	0.00	29.824 
07:50	51.1	51.1	51.1	71	42.0	1	3	112	0.00	29.825 
07:55	51.4	51.4	51.4	70	41.9	2	4	112	0.00	29.823 
08:00	51.7	51.7	51.7	71	42.6	1	3	112	0.00	29.820 
08:05	52.0	52.0	52.0	70	42.5	2	4	112	0.00	29.819 
08:10	52.2	52.2	52.2	72	43.4	1	4	90	0.00	29.817 
08:15	52.5	52.5	52.5	71	43.4	1	4	90	0.00	29.818 
08:20	52.8	52.8	52.8	70	43.3	0	2	90	0.00	29.817 
08:25	53.5	53.5	53.5	69	43.6	1	3	90	0.00	29.815 
08:30	54.1	54.1	54.1	68	43.8	2	4	90	0.00	29.815 
08:35	54.4	54.4	54.4	69	44.4	1	3	112	0.00	29.814 
08:40	54.5	54.5	54.5	68	44.2	1	4	135	0.00	29.810 
08:45	55.1	55.1	55.1	69	45.1	1	3	135	0.00	29.807 
08:50	55.6	55.6	55.6	68	45.2	1	2	135	0.00	29.806 
08:55	56.0	56.0	56.0	68	45.6	0	2	135	0.00	29.805 
09:00	56.7	56.7	56.7	67	45.9	1	4	135	0.00	29.802 
09:05	58.0	58.0	58.0	64	45.9	1	2	112	0.00	29.800 
09:10	59.3	59.3	59.3	62	46.3	1	5	112	0.00	29.797 
09:15	60.2	60.2	60.2	62	47.1	1	3	112	0.00	29.793 
09:20	60.5	60.5	60.5	61	47.0	0	2	112	0.00	29.792 
09:25	61.0	61.0	61.0	62	47.9	0	2	112	0.00	29.790 
09:30	62.1	62.1	62.1	58	47.1	1	2	135	0.00	29.786 
09:35	63.1	63.1	63.1	58	48.1	1	3	90	0.00	29.784 
09:40	63.7	63.7	63.7	59	49.1	1	2	158	0.00	29.780 
09:45	64.5	64.5	64.5	57	48.9	1	5	112	0.00	29.779 
09:50	65.0	65.0	65.0	56	48.9	1	4	90	0.00	29.774 
09:55	65.5	65.5	65.5	55	48.9	2	6	112	0.00	29.772 
10:00	66.1	66.1	66.1	57	50.4	0	2	112	0.00	29.771 
10:05	66.9	66.9	66.9	58	51.6	1	4	112	0.00	29.771 
10:10	67.8	67.8	67.8	56	51.5	1	3	90	0.00	29.771 
10:15	68.6	68.6	68.6	54	51.3	1	11	135	0.00	29.768 
10:20	69.3	69.3	69.3	54	51.9	2	5	270	0.00	29.767 
10:25	69.1	69.1	69.1	51	50.2	2	7	248	0.00	29.765 
10:30	69.4	69.4	69.4	51	50.5	2	5	270	0.00	29.762 
10:35	69.4	69.4	69.4	51	50.5	2	12	248	0.00	29.761 
10:40	69.4	69.4	69.4	50	49.9	3	7	248	0.00	29.757 
10:45	70.3	70.3	70.3	52	51.8	1	6	270	0.00	29.752 
10:50	70.9	70.9	70.9	51	51.9	2	5	248	0.00	29.752 
10:55	71.5	71.5	71.5	48	50.8	3	7	248	0.00	29.750 
11:00	71.8	71.8	71.8	52	53.2	2	6	270	0.00	29.747 
11:05	72.8	72.8	72.8	46	50.8	2	9	270	0.00	29.745 
11:10	73.3	73.3	73.3	48	52.4	1	4	248	0.00	29.741 
11:15	73.0	73.0	73.0	44	49.8	3	7	248	0.00	29.740 
11:20	72.8	72.8	72.8	45	50.2	3	11	248	0.00	29.739 
11:25	72.8	72.8	72.8	45	50.2	2	5	248	0.00	29.736 
11:30	72.8	72.8	72.8	49	52.5	2	11	270	0.00	29.735 
11:35	73.2	73.2	73.2	46	51.2	3	7	90	0.00	29.733 
11:40	73.9	73.9	73.9	46	51.8	2	7	90	0.00	29.727 
11:45	74.2	74.2	74.2	47	52.7	3	6	90	0.00	29.724 
11:50	74.7	74.7	74.7	46	52.5	2	5	248	0.00	29.719 
11:55	75.1	75.1	77.7	46	52.9	3	10	248	0.00	29.718 
12:00	75.4	75.4	77.7	45	52.6	3	11	90	0.00	29.717 
12:05	75.3	75.3	77.6	42	50.6	3	10	90	0.00	29.714 
12:10	75.3	75.3	77.7	43	51.2	4	10	270	0.00	29.712 
12:15	75.1	75.1	77.7	46	52.9	3	10	270	0.00	29.709 
12:20	75.6	75.6	77.8	43	51.5	4	12	90	0.00	29.704 
12:25	75.6	75.6	77.7	41	50.2	4	18	270	0.00	29.702 
12:30	75.3	75.3	77.6	41	50.0	4	11	270	0.00	29.702 
12:35	74.7	74.7	74.7	45	51.9	2	11	112	0.00	29.701 
12:40	74.6	74.6	74.6	43	50.6	2	6	315	0.00	29.699 
12:45	74.9	74.9	74.9	40	48.9	3	10	90	0.00	29.692 
12:50	74.9	74.9	74.9	41	49.6	4	10	90	0.00	29.690 
12:55	75.3	75.3	77.5	38	47.9	4	12	270	0.00	29.690 
13:00	75.6	75.6	77.6	38	48.2	3	12	90	0.00	29.687 
13:05	75.8	75.8	77.6	36	46.9	4	14	248	0.00	29.687 
13:10	76.0	76.0	77.6	36	47.1	3	11	270	0.00	29.688 
13:15	76.0	76.0	77.8	40	49.9	3	8	248	0.00	29.686 
13:20	76.1	76.1	77.6	35	46.4	3	13	270	0.00	29.688 
13:25	75.6	75.6	77.6	37	47.5	3	11	248	0.00	29.690 
13:30	75.8	75.8	77.5	35	46.2	5	12	270	0.00	29.689 
13:35	76.1	76.1	77.6	35	46.4	3	10	248	0.00	29.690 
13:40	76.8	76.8	77.7	32	44.7	3	10	248	0.00	29.688 
13:45	76.7	76.7	77.6	31	43.8	5	13	248	0.00	29.689 
13:50	75.6	75.6	77.4	34	45.2	3	9	248	0.00	29.691 
13:55	76.1	76.1	77.6	34	45.7	4	10	248	0.00	29.695 
14:00	76.5	76.5	77.7	33	45.2	5	14	248	0.00	29.687 
14:05	76.1	76.1	77.6	35	46.4	4	11	248	0.00	29.687 
14:10	75.1	75.1	77.3	35	45.6	4	10	248	0.00	29.690 
14:15	74.9	74.9	74.9	39	48.3	3	6	248	0.00	29.690 
14:20	74.2	74.2	74.2	39	47.6	4	11	90	0.00	29.691 
14:25	74.2	74.2	74.2	42	49.6	2	12	90	0.00	29.691 
14:30	75.6	75.6	77.6	37	47.5	4	15	248	0.00	29.688 
14:35	76.3	76.3	77.7	36	47.4	4	10	248	0.00	29.688 
14:40	76.5	76.5	77.8	35	46.8	5	12	248	0.00	29.686 
14:45	76.1	76.1	77.8	38	48.6	3	10	270	0.00	29.686 
14:50	76.1	76.1	77.7	36	47.2	4	11	248	0.00	29.687 
14:55	74.7	74.7	74.7	38	47.4	4	10	248	0.00	29.687 
15:00	74.2	74.2	74.2	38	46.9	3	9	248	0.00	29.687 
15:05	74.6	74.6	74.6	39	48.0	3	11	248	0.00	29.688 
15:10	74.7	74.7	74.7	39	48.1	2	6	248	0.00	29.685 
15:15	75.4	75.4	77.6	39	48.7	4	11	248	0.00	29.681 
15:20	75.6	75.6	77.6	38	48.2	2	6	248	0.00	29.677 
15:25	75.1	75.1	77.4	38	47.7	4	12	248	0.00	29.680 
15:30	75.3	75.3	77.5	39	48.6	3	9	270	0.00	29.674 
15:35	74.6	74.6	74.6	39	48.0	4	10	248	0.00	29.676 
15:40	74.0	74.0	74.0	39	47.5	3	7	248	0.00	29.678 
15:45	73.7	73.7	73.7	40	47.9	2	6	248	0.00	29.678 
15:50	73.5	73.5	73.5	43	49.6	5	15	248	0.00	29.685 
15:55	73.5	73.5	73.5	46	51.4	5	11	248	0.00	29.684 
16:00	73.0	73.0	73.0	47	51.6	5	13	270	0.00	29.690 
16:05	72.3	72.3	72.3	48	51.5	3	12	225	0.00	29.690 
16:10	72.0	72.0	72.0	50	52.3	4	16	248	0.00	29.691 
16:15	71.8	71.8	71.8	50	52.1	3	13	270	0.00	29.692 
16:20	71.8	71.8	71.8	50	52.1	3	7	248	0.00	29.693 
16:25	71.6	71.6	71.6	50	52.0	3	9	270	0.00	29.695 
16:30	71.3	71.3	71.3	51	52.2	3	9	248	0.00	29.700 
16:35	71.1	71.1	71.1	52	52.6	2	5	270	0.00	29.704 
16:40	70.9	70.9	70.9	51	51.9	4	10	270	0.00	29.708 
16:45	70.6	70.6	70.6	52	52.1	4	11	248	0.00	29.705 
16:50	70.4	70.4	70.4	53	52.4	3	6	248	0.00	29.704 
16:55	70.4	70.4	70.4	53	52.4	2	5	270	0.00	29.703 
17:00	70.4	70.4	70.4	53	52.4	3	7	270	0.00	29.704 
17:05	70.3	70.3	70.3	53	52.3	2	7	248	0.00	29.704 
17:10	70.3	70.3	70.3	53	52.3	3	6	248	0.00	29.705 
17:15	70.1	70.1	70.1	54	52.7	2	6	248	0.00	29.707 
17:20	69.9	69.9	69.9	54	52.5	2	7	248	0.00	29.708 
17:25	69.8	69.8	69.8	54	52.4	1	3	270	0.00	29.708 
17:30	69.8	69.8	69.8	54	52.4	1	5	270	0.00	29.709 
17:35	69.8	69.8	69.8	54	52.4	1	5	248	0.00	29.709 
17:40	69.8	69.8	69.8	54	52.4	1	5	248	0.00	29.709 
17:45	69.6	69.6	69.6	54	52.2	2	4	225	0.00	29.708 
17:50	69.8	69.8	69.8	54	52.4	1	3	248	0.00	29.709 
17:55	69.8	69.8	69.8	54	52.4	0	1	248	0.00	29.710 
18:00	69.6	69.6	69.6	55	52.7	1	4	248	0.00	29.707 
18:05	69.6	69.6	69.6	54	52.2	2	5	248	0.00	29.703 
18:10	69.6	69.6	69.6	54	52.2	2	5	248	0.00	29.701 
18:15	69.6	69.6	69.6	54	52.2	2	5	248	0.00	29.699 
18:20	69.6	69.6	69.6	54	52.2	2	7	270	0.00	29.698 
18:25	69.6	69.6	69.6	55	52.7	1	6	270	0.00	29.698 
18:30	69.6	69.6	69.6	55	52.7	1	5	248	0.00	29.699 
18:35	69.4	69.4	69.4	55	52.5	2	5	248	0.00	29.700 
18:40	69.4	69.4	69.4	55	52.5	1	2	248	0.00	29.700 
18:45	69.3	69.3	69.3	55	52.4	0	2	248	0.00	29.701 
18:50	69.3	69.3	69.3	56	52.9	1	3	248	0.00	29.703 
18:55	69.1	69.1	69.1	56	52.7	0	1	248	0.00	29.703 
19:00	68.9	68.9	68.9	57	53.0	0	1	248	0.00	29.706 
19:05	68.8	68.8	68.8	58	53.4	0	2	248	0.00	29.701 
19:10	68.6	68.6	68.6	58	53.2	0	1	248	0.00	29.701 
19:15	68.4	68.4	68.4	58	53.0	0	2	248	0.00	29.700 
19:20	68.3	68.3	68.3	59	53.4	0	1	248	0.00	29.699 
19:25	68.1	68.1	68.1	59	53.2	0	1	248	0.00	29.697 
19:30	68.1	68.1	68.1	58	52.8	0	2	248	0.00	29.693 
19:35	68.1	68.1	68.1	58	52.8	0	1	248	0.00	29.691 
19:40	68.1	68.1	68.1	60	53.7	0	0	---	0.00	29.696 
19:45	67.9	67.9	67.9	60	53.5	0	0	---	0.00	29.698 
19:50	67.8	67.8	67.8	60	53.4	0	0	---	0.00	29.701 
19:55	67.4	67.4	67.4	61	53.5	0	0	---	0.00	29.701 
20:00	67.3	67.3	67.3	60	52.9	0	0	---	0.00	29.703 
20:05	67.3	67.3	67.3	61	53.4	0	0	---	0.00	29.699 
20:10	67.1	67.1	67.1	62	53.6	0	0	---	0.00	29.700 
20:15	66.8	66.8	66.8	63	53.8	0	0	---	0.00	29.701 
20:20	66.6	66.6	66.6	63	53.6	0	0	---	0.00	29.702 
20:25	66.4	66.4	66.4	63	53.4	0	0	---	0.00	29.704 
20:30	66.3	66.3	66.3	63	53.3	0	0	---	0.00	29.711 
20:35	66.3	66.3	66.3	65	54.2	0	0	---	0.00	29.713 
20:40	66.1	66.1	66.1	64	53.6	0	0	---	0.00	29.714 
20:45	66.0	66.0	66.0	65	53.9	0	1	248	0.00	29.717 
20:50	66.0	66.0	66.0	65	53.9	0	0	---	0.00	29.717 
20:55	65.8	65.8	65.8	65	53.7	0	0	---	0.00	29.717 
21:00	65.8	65.8	65.8	65	53.7	0	1	248	0.00	29.717 
21:05	65.8	65.8	65.8	65	53.7	0	1	248	0.00	29.709 
21:10	65.8	65.8	65.8	65	53.7	0	0	---	0.00	29.709 
21:15	65.6	65.6	65.6	66	53.9	0	0	---	0.00	29.709 
21:20	65.5	65.5	65.5	66	53.8	0	0	---	0.00	29.710 
21:25	65.5	65.5	65.5	67	54.2	0	0	---	0.00	29.711 
21:30	65.3	65.3	65.3	67	54.1	0	0	---	0.00	29.712 
21:35	65.3	65.3	65.3	67	54.1	0	1	248	0.00	29.712 
21:40	65.3	65.3	65.3	66	53.6	0	0	---	0.00	29.713 
21:45	65.3	65.3	65.3	65	53.2	0	1	248	0.00	29.714 
21:50	65.5	65.5	65.5	64	53.0	0	1	248	0.00	29.711 
21:55	65.6	65.6	65.6	63	52.7	0	1	248	0.00	29.713 
22:00	65.8	65.8	65.8	63	52.8	0	2	248	0.00	29.712 
22:05	65.8	65.8	65.8	62	52.4	0	1	248	0.00	29.707 
22:10	66.0	66.0	66.0	61	52.2	0	1	248	0.00	29.707 
22:15	66.0	66.0	66.0	61	52.2	0	1	248	0.00	29.705 
22:20	66.1	66.1	66.1	60	51.8	0	2	248	0.00	29.705 
22:25	66.1	66.1	66.1	59	51.3	0	2	202	0.00	29.704 
22:30	66.3	66.3	66.3	57	50.6	1	3	112	0.00	29.704 
22:35	66.6	66.6	66.6	55	49.9	1	3	135	0.00	29.704 
22:40	66.8	66.8	66.8	55	50.1	1	4	135	0.00	29.704 
22:45	66.8	66.8	66.8	54	49.6	1	3	135	0.00	29.705 
22:50	66.8	66.8	66.8	54	49.6	0	2	135	0.00	29.705 
22:55	66.8	66.8	66.8	54	49.6	0	1	135	0.00	29.705 
23:00	66.8	66.8	66.8	54	49.6	0	1	135	0.00	29.706 
23:05	66.6	66.6	66.6	55	49.9	0	0	---	0.00	29.703 
23:10	66.4	66.4	66.4	55	49.7	0	2	135	0.00	29.703 
23:15	66.3	66.3	66.3	54	49.1	0	2	135	0.00	29.701 
23:20	66.3	66.3	66.3	54	49.1	1	2	135	0.00	29.699 
23:25	66.3	66.3	66.3	53	48.6	1	3	90	0.00	29.701 
23:30	66.4	66.4	66.4	53	48.7	0	2	112	0.00	29.700 
23:35	66.4	66.4	66.4	53	48.7	0	2	112	0.00	29.698 
23:40	66.4	66.4	66.4	54	49.2	0	2	112	0.00	29.692 
23:45	66.4	66.4	66.4	54	49.2	0	1	112	0.00	29.691 
23:50	66.4	66.4	66.4	54	49.2	0	2	112	0.00	29.689 
23:55	66.4	66.4	66.4	54	49.2	0	3	112	0.00	29.691 

CoCoRaHS
IN-AL-39
A2 Web Hosting
Creative Commons License
GoDaddy
Look for:

loaded 2017-10-16 18:04:35 • last modified 2010-11-18 10:43:29
Privacy PolicyDisclaimer
• wx.awcolley.com is powered by PmWiki v.2002016 •
• all content (unless otherwise noted) © 2017 A W Colley